This is the latest recevied weather packets stored in our database for station/object KJ6LNH-1. If no packets are shown the sender has not sent any weather packets the latest 10 day(s).
| Time | Temp. | Humidity | Pressure | Rain* | Wind** | Luminosity | Snow |
|---|---|---|---|---|---|---|---|
| 1777664707 | 22.22° C | 52% | 1012.5 hPa | 0 mm | - | - | - |
| 1777664108 | 22.22° C | 52% | 1012.6 hPa | 0 mm | - | - | - |
| 1777663207 | 21.67° C | 53% | 1013 hPa | 0 mm | - | - | - |
| 1777662308 | 21.67° C | 54% | 1013.1 hPa | 0 mm | - | - | - |
| 1777661707 | 21.11° C | 55% | 1013.1 hPa | 0 mm | - | - | - |
| 1777659608 | 20° C | 58% | 1013.1 hPa | 0 mm | - | - | - |
| 1777659307 | 20.56° C | 57% | 1013.2 hPa | 0 mm | - | - | - |
| 1777659007 | 20° C | 58% | 1013.2 hPa | 0 mm | - | - | - |
| 1777658708 | 19.44° C | 59% | 1013.3 hPa | 0 mm | - | - | - |
| 1777658407 | 19.44° C | 59% | 1013.3 hPa | 0 mm | - | - | - |
| 1777658107 | 19.44° C | 59% | 1013.3 hPa | 0 mm | - | - | - |
| 1777656008 | 18.33° C | 64% | 1013.1 hPa | 0 mm | - | - | - |
| 1777652708 | 16.67° C | 70% | 1012.7 hPa | 0 mm | - | - | - |
| 1777650008 | 15° C | 76% | 1012.5 hPa | 0 mm | - | - | - |
| 1777649707 | 15° C | 76% | 1012.5 hPa | 0 mm | - | - | - |
| 1777649407 | 15° C | 77% | 1012.4 hPa | 0 mm | - | - | - |
| 1777649109 | 14.44° C | 79% | 1012.4 hPa | 0 mm | - | - | - |
| 1777648521 | 13.89° C | 81% | 1012.3 hPa | 0 mm | - | - | - |
| 1777648207 | 13.89° C | 82% | 1012.3 hPa | 0 mm | - | - | - |
| 1777647916 | 13.33° C | 83% | 1012.3 hPa | 0 mm | - | - | - |
| 1777647315 | 13.33° C | 84% | 1012.3 hPa | 0 mm | - | - | - |
| 1777646707 | 12.78° C | 85% | 1012.2 hPa | 0 mm | - | - | - |
| 1777646410 | 12.78° C | 86% | 1012.2 hPa | 0 mm | - | - | - |
| 1777646107 | 12.22° C | 87% | 1012.1 hPa | 0 mm | - | - | - |
| 1777645810 | 12.22° C | 88% | 1012.1 hPa | 0 mm | - | - | - |
* Rain latest hour (hover to see other rain measurements)
** Current wind speed in m/s (hover to see current wind gust speed)